No particular awareness of the weather is required.    There are no Weather-warnings


Meteo18 Weather Cam more information Meteo18 Weather Cam


Thunder radar more information blitzortung!


Rain radar more information rain snow radar


Visit our other weather sites:

Template documentation
and downloads

And another site



Weather Underground History page Text

Daily Summary for September 18, 2017 Units:  English    Metric   Both
« Previous Day
Next Day »
Daily Weekly Monthly Yearly Custom
  High: Low: Average:
Temperature: TemperatureC °F 6.6 °F 11 °F
Dew Point: DewpointC °F 6.2 °F 8.6 °F
Humidity: Humidity % 58 % 86 %
Wind Speed: WindSpeedKMH mph 0.0 mph 3.4 mph
Wind Gust: WindSpeedGustKMH mph - -
Wind:- - WSW
Pressure: PressurehPa in 1017.2 in -
Precipitation: 0.0 in    
Historical Graphs
 
 
Tabular Data for September 18, 2017
Time Temperature Dew Point Pressure Wind Wind Speed Wind Gust Humidity Rainfall Rate (Hourly)
TemperatureC °F DewpointC °F PressurehPa in Calm     Humidity % HourlyPrecipMM in
00:02 10.0 °F 9.2 °F 1017.2 in Calm     95 % 0.0 in
00:07 10.0 °F 9.2 °F 1017.2 in Calm     95 % 0.0 in
00:12 9.9 °F 9.1 °F 1017.2 in Calm     95 % 0.0 in
00:17 9.8 °F 8.9 °F 1017.2 in Calm     94 % 0.0 in
00:22 9.7 °F 8.9 °F 1017.2 in Calm     95 % 0.0 in
00:32 9.7 °F 8.9 °F 1017.2 in Calm     95 % 0.0 in
00:42 9.6 °F 8.8 °F 1017.2 in Calm     95 % 0.0 in
00:52 9.6 °F 8.8 °F 1017.5 in WSW 1.6 mph 3.2 mph 95 % 0.0 in
00:57 9.7 °F 8.9 °F 1017.5 in SW 1.6 mph 3.2 mph 95 % 0.0 in
01:02 9.7 °F 8.9 °F 1017.5 in Calm   4.8 mph 95 % 0.0 in
01:12 9.8 °F 8.9 °F 1017.5 in Calm   4.8 mph 94 % 0.0 in
01:17 9.8 °F 8.9 °F 1017.2 in Calm   4.8 mph 94 % 0.0 in
01:22 9.8 °F 8.9 °F 1017.2 in WSW 1.6 mph 4.8 mph 94 % 0.0 in
01:32 9.8 °F 9.0 °F 1017.5 in WSW 1.6 mph 4.8 mph 95 % 0.0 in
01:37 9.7 °F 8.9 °F 1017.5 in SW 1.6 mph 4.8 mph 95 % 0.0 in
01:42 9.7 °F 8.9 °F 1017.5 in SW 4.8 mph 4.8 mph 95 % 0.0 in
01:52 9.7 °F 8.9 °F 1017.5 in WSW 1.6 mph 6.4 mph 95 % 0.0 in
01:57 9.7 °F 8.9 °F 1017.5 in WSW 3.2 mph 6.4 mph 95 % 0.0 in
02:02 9.7 °F 8.9 °F 1017.5 in West 4.8 mph 6.4 mph 95 % 0.0 in
02:07 9.7 °F 8.9 °F 1017.5 in SW 3.2 mph 6.4 mph 95 % 0.0 in
02:12 9.7 °F 8.9 °F 1017.5 in SSW 3.2 mph 6.4 mph 95 % 0.0 in
02:17 9.6 °F 8.8 °F 1017.5 in SW 3.2 mph 6.4 mph 95 % 0.0 in
02:22 9.6 °F 8.8 °F 1017.5 in South 3.2 mph 6.4 mph 95 % 0.0 in
02:32 9.6 °F 9.0 °F 1017.5 in WSW 4.8 mph 9.7 mph 96 % 0.0 in
02:42 9.4 °F 8.6 °F 1017.5 in SW 6.4 mph 6.4 mph 95 % 0.0 in
02:47 9.4 °F 8.8 °F 1017.5 in West 4.8 mph 9.7 mph 96 % 0.0 in
02:52 9.3 °F 8.7 °F 1017.5 in WSW 4.8 mph 9.7 mph 96 % 0.0 in
02:57 9.3 °F 8.7 °F 1017.5 in SW 4.8 mph 9.7 mph 96 % 0.0 in
03:02 9.3 °F 8.7 °F 1017.5 in WSW 4.8 mph 9.7 mph 96 % 0.0 in
03:07 9.3 °F 8.7 °F 1017.5 in SW 1.6 mph 6.4 mph 96 % 0.0 in
03:12 9.3 °F 8.7 °F 1017.5 in SW 3.2 mph 6.4 mph 96 % 0.0 in
03:17 9.2 °F 8.6 °F 1017.5 in Calm   4.8 mph 96 % 0.0 in
03:22 9.2 °F 8.6 °F 1017.5 in Calm   4.8 mph 96 % 0.0 in
03:32 9.2 °F 8.6 °F 1017.5 in SW 3.2 mph 4.8 mph 96 % 0.0 in
03:37 9.2 °F 8.6 °F 1017.5 in SW 3.2 mph 3.2 mph 96 % 0.0 in
03:42 9.2 °F 8.6 °F 1017.5 in Calm   3.2 mph 96 % 0.0 in
03:47 9.1 °F 8.5 °F 1017.5 in SW 1.6 mph 3.2 mph 96 % 0.0 in
03:52 9.1 °F 8.5 °F 1017.5 in WSW 1.6 mph 3.2 mph 96 % 0.0 in
04:02 9.0 °F 8.4 °F 1017.5 in SW 4.8 mph 4.8 mph 96 % 0.0 in
04:07 8.9 °F 8.3 °F 1017.5 in SW 3.2 mph 4.8 mph 96 % 0.0 in
04:12 8.9 °F 8.3 °F 1017.5 in SW 4.8 mph 4.8 mph 96 % 0.0 in
04:17 8.8 °F 8.2 °F 1017.5 in SW 4.8 mph 6.4 mph 96 % 0.0 in
04:22 8.7 °F 8.1 °F 1017.5 in SSW 1.6 mph 6.4 mph 96 % 0.0 in
04:27 8.7 °F 8.1 °F 1017.5 in WSW 3.2 mph 6.4 mph 96 % 0.0 in
04:32 8.6 °F 8.0 °F 1017.5 in SW 1.6 mph 6.4 mph 96 % 0.0 in
04:37 8.6 °F 8.0 °F 1017.5 in SW 3.2 mph 6.4 mph 96 % 0.0 in
04:42 8.5 °F 7.9 °F 1017.5 in Calm   6.4 mph 96 % 0.0 in
04:47 8.4 °F 7.8 °F 1017.5 in SSW 3.2 mph 8.0 mph 96 % 0.0 in
04:52 8.4 °F 7.8 °F 1017.5 in WSW 6.4 mph 8.0 mph 96 % 0.0 in
04:57 8.3 °F 7.7 °F 1017.5 in Calm   8.0 mph 96 % 0.0 in
05:02 8.2 °F 7.6 °F 1017.5 in Calm   8.0 mph 96 % 0.0 in
05:17 7.9 °F 7.3 °F 1017.5 in Calm   1.6 mph 96 % 0.0 in
05:27 7.9 °F 7.3 °F 1017.5 in Calm     96 % 0.0 in
05:32 7.8 °F 7.2 °F 1017.5 in Calm     96 % 0.0 in
05:37 7.8 °F 7.2 °F 1017.5 in Calm     96 % 0.0 in
05:42 7.7 °F 7.1 °F 1017.5 in Calm     96 % 0.0 in
05:47 7.7 °F 7.1 °F 1017.5 in Calm   3.2 mph 96 % 0.0 in
05:52 7.6 °F 7.0 °F 1017.5 in Calm   3.2 mph 96 % 0.0 in
06:02 7.5 °F 6.9 °F 1017.5 in Calm   1.6 mph 96 % 0.0 in
06:07 7.5 °F 6.9 °F 1017.5 in Calm   1.6 mph 96 % 0.0 in
06:12 7.4 °F 6.8 °F 1017.5 in Calm   1.6 mph 96 % 0.0 in
06:17 7.4 °F 6.8 °F 1017.5 in Calm     96 % 0.0 in
06:22 7.3 °F 6.7 °F 1017.5 in Calm     96 % 0.0 in
06:32 7.3 °F 6.7 °F 1017.5 in Calm   1.6 mph 96 % 0.0 in
06:37 7.3 °F 6.9 °F 1017.5 in Calm     97 % 0.0 in
06:42 7.3 °F 6.9 °F 1017.8 in SSW 3.2 mph   97 % 0.0 in
06:47 7.2 °F 6.6 °F 1017.8 in SSW 1.6 mph 3.2 mph 96 % 0.0 in
06:52 7.2 °F 6.6 °F 1017.8 in SW 1.6 mph 3.2 mph 96 % 0.0 in
07:02 7.1 °F 6.7 °F 1017.8 in Calm   6.4 mph 97 % 0.0 in
07:12 6.9 °F 6.3 °F 1017.8 in SW 3.2 mph 3.2 mph 96 % 0.0 in
07:17 6.8 °F 6.2 °F 1017.8 in Calm   4.8 mph 96 % 0.0 in
07:22 6.8 °F 6.4 °F 1017.8 in Calm   4.8 mph 97 % 0.0 in
07:32 6.7 °F 6.3 °F 1018.2 in SW 1.6 mph 4.8 mph 97 % 0.0 in
07:42 6.7 °F 6.3 °F 1018.2 in Calm   4.8 mph 97 % 0.0 in
07:52 6.6 °F 6.2 °F 1018.2 in SW 1.6 mph 4.8 mph 97 % 0.0 in
07:57 6.7 °F 6.3 °F 1018.2 in Calm   4.8 mph 97 % 0.0 in
08:02 6.7 °F 6.3 °F 1018.2 in SW 1.6 mph 4.8 mph 97 % 0.0 in
08:12 6.7 °F 6.3 °F 1018.5 in SSW 3.2 mph 3.2 mph 97 % 0.0 in
08:17 6.8 °F 6.4 °F 1018.5 in SW 1.6 mph 4.8 mph 97 % 0.0 in
08:22 6.7 °F 6.3 °F 1018.5 in WSW 4.8 mph 4.8 mph 97 % 0.0 in
08:32 6.8 °F 6.4 °F 1018.5 in SSE 1.6 mph 6.4 mph 97 % 0.0 in
08:42 6.7 °F 6.3 °F 1018.5 in SSW 3.2 mph 8.0 mph 97 % 0.0 in
08:52 6.7 °F 6.3 °F 1018.5 in WSW 3.2 mph 8.0 mph 97 % 0.0 in
08:57 6.6 °F 6.2 °F 1018.5 in WSW 3.2 mph 8.0 mph 97 % 0.0 in
09:02 6.6 °F 6.2 °F 1018.5 in SW 1.6 mph 8.0 mph 97 % 0.0 in
09:12 6.7 °F 6.3 °F 1018.8 in Calm   6.4 mph 97 % 0.0 in
09:17 6.8 °F 6.4 °F 1018.8 in SSW 1.6 mph 6.4 mph 97 % 0.0 in
09:22 6.9 °F 6.5 °F 1018.8 in Calm   6.4 mph 97 % 0.0 in
09:32 6.8 °F 6.4 °F 1018.8 in Calm   4.8 mph 97 % 0.0 in
09:37 7.2 °F 6.8 °F 1018.8 in Calm   4.8 mph 97 % 0.0 in
09:42 7.2 °F 6.8 °F 1018.8 in Calm   4.8 mph 97 % 0.0 in
09:47 7.2 °F 6.8 °F 1018.8 in Calm   1.6 mph 97 % 0.0 in
09:52 7.2 °F 6.8 °F 1018.8 in Calm   1.6 mph 97 % 0.0 in
10:02 7.6 °F 7.2 °F 1018.8 in SSW 1.6 mph 1.6 mph 97 % 0.0 in
10:12 7.7 °F 7.3 °F 1018.8 in Calm   1.6 mph 97 % 0.0 in
10:17 7.7 °F 7.3 °F 1018.8 in Calm   3.2 mph 97 % 0.0 in
10:22 8.1 °F 7.7 °F 1018.8 in Calm   3.2 mph 97 % 0.0 in
10:32 8.1 °F 7.7 °F 1018.8 in Calm   3.2 mph 97 % 0.0 in
10:42 8.2 °F 7.8 °F 1018.8 in SW 3.2 mph 4.8 mph 97 % 0.0 in
10:52 8.4 °F 8.0 °F 1019.2 in SW 4.8 mph 6.4 mph 97 % 0.0 in
10:57 8.5 °F 8.1 °F 1019.2 in SSW 1.6 mph 6.4 mph 97 % 0.0 in
11:02 8.7 °F 8.3 °F 1019.2 in SW 1.6 mph 6.4 mph 97 % 0.0 in
11:12 9.1 °F 8.6 °F 1019.2 in Calm   4.8 mph 97 % 0.0 in
11:17 9.1 °F 8.6 °F 1019.2 in SW 4.8 mph 6.4 mph 97 % 0.0 in
11:22 9.2 °F 8.7 °F 1019.2 in SW 1.6 mph 6.4 mph 97 % 0.0 in
11:32 9.4 °F 8.9 °F 1019.2 in SW 6.4 mph 6.4 mph 97 % 0.0 in
11:42 9.8 °F 9.3 °F 1019.2 in South 1.6 mph 8.0 mph 97 % 0.0 in
11:52 10.0 °F 9.5 °F 1019.2 in SW 6.4 mph 8.0 mph 97 % 0.0 in
12:02 10.1 °F 9.5 °F 1019.2 in SW 6.4 mph 11.3 mph 96 % 0.0 in
12:12 10.6 °F 10.1 °F 1019.2 in SSE 3.2 mph 9.7 mph 97 % 0.0 in
12:17 10.8 °F 10.3 °F 1019.2 in SSW 1.6 mph 11.3 mph 97 % 0.0 in
12:22 10.7 °F 9.9 °F 1019.2 in SW 4.8 mph 11.3 mph 95 % 0.0 in
12:27 10.7 °F 10.1 °F 1019.2 in South 9.7 mph 11.3 mph 96 % 0.0 in
12:32 11.0 °F 10.4 °F 1019.2 in SW 8.0 mph 11.3 mph 96 % 0.0 in
12:42 11.4 °F 10.6 °F 1019.2 in SSW 6.4 mph 11.3 mph 95 % 0.0 in
12:47 11.3 °F 10.4 °F 1019.2 in SW 8.0 mph 12.9 mph 94 % 0.0 in
12:52 11.5 °F 10.4 °F 1019.2 in SW 6.4 mph 12.9 mph 93 % 0.0 in
13:02 12.1 °F 10.5 °F 1019.2 in SSW 3.2 mph 12.9 mph 90 % 0.0 in
13:12 12.4 °F 10.5 °F 1019.2 in WSW 6.4 mph 16.1 mph 88 % 0.0 in
13:17 12.7 °F 10.8 °F 1019.2 in SSW 3.2 mph 16.1 mph 88 % 0.0 in
13:22 12.9 °F 10.6 °F 1019.2 in South 6.4 mph 16.1 mph 86 % 0.0 in
13:32 13.2 °F 10.6 °F 1019.2 in SW 9.7 mph 14.5 mph 84 % 0.0 in
13:42 13.3 °F 10.8 °F 1019.2 in South 11.3 mph 14.5 mph 85 % 0.0 in
13:52 13.1 °F 10.5 °F 1019.2 in SSW 6.4 mph 17.7 mph 84 % 0.0 in
13:57 13.1 °F 10.5 °F 1019.2 in South 4.8 mph 17.7 mph 84 % 0.0 in
14:02 13.3 °F 10.5 °F 1018.8 in South 9.7 mph 17.7 mph 83 % 0.0 in
14:12 13.7 °F 11.2 °F 1018.8 in SW 11.3 mph 19.3 mph 85 % 0.0 in
14:17 13.7 °F 10.5 °F 1018.8 in SW 8.0 mph 19.3 mph 81 % 0.0 in
14:27 13.8 °F 10.8 °F 1018.8 in WSW 12.9 mph 17.7 mph 82 % 0.0 in
14:32 13.9 °F 10.7 °F 1018.8 in SW 9.7 mph 17.7 mph 81 % 0.0 in
14:37 13.9 °F 10.9 °F 1018.8 in SSW 8.0 mph 19.3 mph 82 % 0.0 in
14:42 14.4 °F 11.2 °F 1018.8 in WSW 12.9 mph 19.3 mph 81 % 0.0 in
14:47 14.6 °F 11.2 °F 1018.8 in SSW 11.3 mph 19.3 mph 80 % 0.0 in
14:52 14.6 °F 10.8 °F 1018.8 in SSW 8.0 mph 19.3 mph 78 % 0.0 in
14:57 14.7 °F 11.1 °F 1018.8 in WNW 4.8 mph 19.3 mph 79 % 0.0 in
15:02 14.7 °F 10.7 °F 1018.8 in South 6.4 mph 19.3 mph 77 % 0.0 in
15:07 14.9 °F 10.9 °F 1018.8 in WSW 11.3 mph 20.9 mph 77 % 0.0 in
15:12 14.9 °F 11.3 °F 1018.8 in West 3.2 mph 20.9 mph 79 % 0.0 in
15:17 15.2 °F 11.2 °F 1018.8 in SW 14.5 mph 20.9 mph 77 % 0.0 in
15:22 15.3 °F 10.5 °F 1018.8 in WSW 8.0 mph 17.7 mph 73 % 0.0 in
15:27 15.3 °F 11.1 °F 1018.5 in SW 8.0 mph 19.3 mph 76 % 0.0 in
15:32 15.4 °F 10.8 °F 1018.5 in WSW 9.7 mph 19.3 mph 74 % 0.0 in
15:42 15.4 °F 10.6 °F 1018.5 in West 11.3 mph 19.3 mph 73 % 0.0 in
15:47 15.3 °F 10.7 °F 1018.5 in West 9.7 mph 19.3 mph 74 % 0.0 in
15:52 15.2 °F 10.4 °F 1018.5 in SW 4.8 mph 19.3 mph 73 % 0.0 in
16:02 15.4 °F 9.7 °F 1018.5 in West 3.2 mph 19.3 mph 69 % 0.0 in
16:07 15.7 °F 9.6 °F 1018.5 in West 16.1 mph 17.7 mph 67 % 0.0 in
16:12 15.7 °F 9.6 °F 1018.5 in West 6.4 mph 17.7 mph 67 % 0.0 in
16:17 16.0 °F 9.7 °F 1018.5 in West 6.4 mph 17.7 mph 66 % 0.0 in
16:22 16.0 °F 9.0 °F 1018.5 in WNW 12.9 mph 17.7 mph 63 % 0.0 in
16:32 15.4 °F 9.1 °F 1018.8 in WSW 8.0 mph 16.1 mph 66 % 0.0 in
16:37 15.6 °F 9.5 °F 1018.5 in WNW 9.7 mph 17.7 mph 67 % 0.0 in
16:42 15.8 °F 9.9 °F 1018.5 in West 14.5 mph 17.7 mph 68 % 0.0 in
16:52 15.8 °F 9.7 °F 1018.8 in WNW 12.9 mph 19.3 mph 67 % 0.0 in
17:02 15.3 °F 9.2 °F 1018.8 in WNW 8.0 mph 19.3 mph 67 % 0.0 in
17:07 15.3 °F 9.2 °F 1018.8 in WNW 11.3 mph 19.3 mph 67 % 0.0 in
17:12 15.7 °F 10.0 °F 1018.8 in West 6.4 mph 19.3 mph 69 % 0.0 in
17:17 15.8 °F 9.5 °F 1018.8 in SW 8.0 mph 17.7 mph 66 % 0.0 in
17:22 15.8 °F 9.0 °F 1018.8 in West 9.7 mph 14.5 mph 64 % 0.0 in
17:27 15.9 °F 9.1 °F 1018.8 in West 3.2 mph 14.5 mph 64 % 0.0 in
17:32 15.9 °F 9.1 °F 1018.5 in NW 3.2 mph 14.5 mph 64 % 0.0 in
17:37 16.3 °F 9.5 °F 1018.8 in Calm   14.5 mph 64 % 0.0 in
17:42 16.5 °F 8.5 °F 1018.5 in West 11.3 mph 11.3 mph 59 % 0.0 in
17:47 16.3 °F 8.8 °F 1018.5 in West 8.0 mph 12.9 mph 61 % 0.0 in
17:52 16.1 °F 8.6 °F 1018.5 in SW 3.2 mph 12.9 mph 61 % 0.0 in
17:57 16.0 °F 8.7 °F 1018.5 in WNW 9.7 mph 12.9 mph 62 % 0.0 in
18:02 16.0 °F 8.5 °F 1018.8 in West 8.0 mph 12.9 mph 61 % 0.0 in
18:07 16.1 °F 8.3 °F 1018.5 in NW 1.6 mph 12.9 mph 60 % 0.0 in
18:12 16.2 °F 8.4 °F 1018.8 in WNW 4.8 mph 12.9 mph 60 % 0.0 in
18:17 16.3 °F 8.3 °F 1018.8 in West 4.8 mph 12.9 mph 59 % 0.0 in
18:22 16.3 °F 8.0 °F 1018.8 in WNW 3.2 mph 11.3 mph 58 % 0.0 in
18:27 16.4 °F 8.4 °F 1018.8 in NW 3.2 mph 11.3 mph 59 % 0.0 in
18:32 16.3 °F 8.5 °F 1018.8 in WNW 4.8 mph 12.9 mph 60 % 0.0 in
18:37 16.2 °F 8.7 °F 1018.8 in WNW 3.2 mph 14.5 mph 61 % 0.0 in
18:42 16.1 °F 8.6 °F 1018.8 in WNW 3.2 mph 14.5 mph 61 % 0.0 in
18:52 15.9 °F 8.6 °F 1018.8 in NW 3.2 mph 12.9 mph 62 % 0.0 in
18:57 16.1 °F 8.8 °F 1018.8 in West 1.6 mph 9.7 mph 62 % 0.0 in
19:02 16.0 °F 9.0 °F 1018.8 in WNW 3.2 mph 9.7 mph 63 % 0.0 in
19:12 15.3 °F 9.0 °F 1018.8 in WNW 1.6 mph 4.8 mph 66 % 0.0 in
19:17 15.0 °F 9.1 °F 1018.8 in WNW 3.2 mph 4.8 mph 68 % 0.0 in
19:22 14.7 °F 9.1 °F 1018.8 in West 3.2 mph 4.8 mph 69 % 0.0 in
19:27 14.5 °F 9.1 °F 1018.8 in WNW 3.2 mph 4.8 mph 70 % 0.0 in
19:32 14.3 °F 8.9 °F 1019.2 in WNW 3.2 mph 4.8 mph 70 % 0.0 in
19:37 14.0 °F 8.6 °F 1019.2 in WNW 4.8 mph 6.4 mph 70 % 0.0 in
19:42 13.8 °F 8.6 °F 1019.2 in West 3.2 mph 6.4 mph 71 % 0.0 in
19:47 13.7 °F 8.7 °F 1019.2 in Calm   4.8 mph 72 % 0.0 in
19:52 13.4 °F 8.9 °F 1019.2 in Calm   4.8 mph 74 % 0.0 in
20:02 12.8 °F 9.1 °F 1019.2 in West 1.6 mph 3.2 mph 78 % 0.0 in
20:07 12.6 °F 9.1 °F 1019.5 in WNW 1.6 mph 3.2 mph 79 % 0.0 in
20:12 12.4 °F 9.0 °F 1019.5 in WNW 1.6 mph 3.2 mph 80 % 0.0 in
20:17 12.3 °F 9.1 °F 1019.5 in Calm   3.2 mph 81 % 0.0 in
20:22 12.2 °F 9.2 °F 1019.5 in WNW 4.8 mph 4.8 mph 82 % 0.0 in
20:27 12.1 °F 9.1 °F 1019.9 in Calm   4.8 mph 82 % 0.0 in
20:32 12.2 °F 9.0 °F 1019.9 in Calm   4.8 mph 81 % 0.0 in
20:42 12.4 °F 9.0 °F 1019.9 in NW 3.2 mph 6.4 mph 80 % 0.0 in
20:52 12.4 °F 9.0 °F 1020.2 in NW 3.2 mph 6.4 mph 80 % 0.0 in
21:02 12.4 °F 9.0 °F 1020.2 in West 1.6 mph 6.4 mph 80 % 0.0 in
21:07 12.4 °F 9.0 °F 1020.2 in WNW 1.6 mph 4.8 mph 80 % 0.0 in
21:12 12.4 °F 9.0 °F 1020.2 in Calm   4.8 mph 80 % 0.0 in
21:27 12.5 °F 9.3 °F 1020.2 in NW 1.6 mph 3.2 mph 81 % 0.0 in
21:32 12.4 °F 9.2 °F 1020.2 in West 1.6 mph 3.2 mph 81 % 0.0 in
21:42 12.3 °F 8.9 °F 1020.2 in NW 1.6 mph 4.8 mph 80 % 0.0 in
21:52 12.2 °F 8.9 °F 1020.2 in NW 3.2 mph 4.8 mph 80 % 0.0 in
21:57 12.1 °F 8.8 °F 1020.2 in Calm   4.8 mph 80 % 0.0 in
22:02 12.0 °F 8.7 °F 1020.2 in NNW 1.6 mph 4.8 mph 80 % 0.0 in
22:07 11.8 °F 8.5 °F 1020.2 in Calm   6.4 mph 80 % 0.0 in
22:12 11.8 °F 8.5 °F 1020.2 in NW 1.6 mph 6.4 mph 80 % 0.0 in
22:17 11.7 °F 8.4 °F 1020.5 in Calm   4.8 mph 80 % 0.0 in
22:27 11.6 °F 8.5 °F 1020.5 in NW 1.6 mph 4.8 mph 81 % 0.0 in
22:32 11.4 °F 8.3 °F 1020.5 in NW 3.2 mph 4.8 mph 81 % 0.0 in
22:37 11.4 °F 8.4 °F 1020.5 in North 1.6 mph 4.8 mph 82 % 0.0 in
22:42 11.2 °F 8.4 °F 1020.5 in Calm   4.8 mph 83 % 0.0 in
22:57 10.6 °F 8.2 °F 1020.9 in NNW 1.6 mph 3.2 mph 85 % 0.0 in
23:02 10.6 °F 8.4 °F 1020.9 in Calm   3.2 mph 86 % 0.0 in
23:12 10.6 °F 8.2 °F 1020.9 in Calm   4.8 mph 85 % 0.0 in
23:17 10.6 °F 8.4 °F 1020.9 in NNW 3.2 mph 4.8 mph 86 % 0.0 in
23:22 10.4 °F 8.2 °F 1020.9 in North 1.6 mph 4.8 mph 86 % 0.0 in
23:27 10.3 °F 8.2 °F 1020.9 in NNE 3.2 mph 4.8 mph 87 % 0.0 in
23:32 10.2 °F 8.1 °F 1020.9 in NNW 1.6 mph 4.8 mph 87 % 0.0 in
23:37 10.2 °F 8.1 °F 1020.9 in Calm   4.8 mph 87 % 0.0 in
23:42 10.2 °F 8.1 °F 1020.9 in Calm   4.8 mph 87 % 0.0 in
23:47 10.3 °F 8.1 °F 1020.9 in Calm   3.2 mph 86 % 0.0 in
23:52 10.3 °F 8.1 °F 1020.9 in Calm   1.6 mph 86 % 0.0 in
23:57 10.4 °F 8.2 °F 1020.9 in Calm   1.6 mph 86 % 0.0 in
Meteo18
Compliments of Weather Underground - 4 mb

Script developed by  Jim McMurry - jmcmurry@mwt.net Adapted for the template by  Wim van der Kuil - Leuven-Template.eu

You find our weather info also at:

European Weather Network

Weather Underground

Equipment we use:

Weather-station
Davis Vue

Weather-program
Meteobridge

Weather-server
Raspberry PI 2 B+

Provider
1 and 1

Davis Vue

Meteobridge

Raspberry PI 2 B+

1 and 1